createdAt,value
2019-01-25T00:02:16.983Z,11.90
2019-01-25T00:04:48.574Z,11.77
2019-01-25T00:07:20.055Z,12.07
2019-01-25T00:09:51.334Z,11.63
2019-01-25T00:12:22.402Z,11.33
2019-01-25T00:14:53.781Z,12.27
2019-01-25T00:17:24.910Z,11.50
2019-01-25T00:19:56.382Z,10.20
2019-01-25T00:22:27.803Z,11.10
2019-01-25T00:24:58.710Z,11.90
2019-01-25T00:27:30.107Z,12.20
2019-01-25T00:30:01.545Z,11.80
2019-01-25T00:32:32.997Z,10.50
2019-01-25T00:35:05.092Z,10.40
2019-01-25T00:37:36.821Z,10.77
2019-01-25T00:40:10.358Z,11.47
2019-01-25T00:42:41.590Z,12.77
2019-01-25T00:45:12.365Z,10.30
2019-01-25T00:47:42.717Z,10.00
2019-01-25T00:50:17.150Z,10.93
2019-01-25T00:52:48.706Z,9.43
2019-01-25T00:55:19.184Z,10.47
2019-01-25T00:57:50.572Z,11.17
2019-01-25T01:00:23.606Z,13.57
2019-01-25T01:02:54.719Z,9.43
2019-01-25T01:05:25.572Z,11.27
2019-01-25T01:07:56.692Z,10.93
2019-01-25T01:10:28.446Z,10.07
2019-01-25T01:12:59.936Z,10.77
2019-01-25T01:15:31.034Z,9.90
2019-01-25T01:18:02.515Z,10.13
2019-01-25T01:20:33.635Z,9.60
2019-01-25T01:23:04.806Z,10.33
2019-01-25T01:25:35.626Z,9.87
2019-01-25T01:28:06.453Z,9.93
2019-01-25T01:30:36.888Z,9.97
2019-01-25T01:33:07.702Z,9.37
2019-01-25T01:35:38.010Z,9.60
2019-01-25T01:38:08.977Z,8.90
2019-01-25T01:40:39.327Z,8.87
2019-01-25T01:43:10.649Z,11.73
2019-01-25T01:45:41.053Z,10.43
2019-01-25T01:48:12.017Z,9.23
2019-01-25T01:50:42.483Z,9.90
2019-01-25T01:53:13.126Z,10.10
2019-01-25T01:55:44.595Z,10.77
2019-01-25T01:58:15.667Z,8.53
2019-01-25T02:00:46.837Z,8.47
2019-01-25T02:03:18.578Z,8.53
2019-01-25T02:05:50.022Z,9.33
2019-01-25T02:08:20.874Z,8.40
2019-01-25T02:10:52.310Z,9.57
2019-01-25T02:13:23.482Z,9.23
2019-01-25T02:15:54.651Z,9.83
2019-01-25T02:18:26.047Z,9.57
2019-01-25T02:20:57.497Z,9.70
2019-01-25T02:23:28.666Z,8.77
2019-01-25T02:25:59.789Z,9.17
2019-01-25T02:28:30.929Z,9.27
2019-01-25T02:31:02.077Z,8.53
2019-01-25T02:33:32.910Z,9.57
2019-01-25T02:36:04.353Z,7.80
2019-01-25T02:38:35.813Z,9.67
2019-01-25T02:41:07.263Z,8.23
2019-01-25T02:43:38.418Z,9.73
2019-01-25T02:46:09.566Z,8.10
2019-01-25T02:48:40.603Z,8.43
2019-01-25T02:51:12.155Z,9.27
2019-01-25T02:53:43.006Z,8.50
2019-01-25T02:56:13.843Z,9.37
2019-01-25T02:58:44.959Z,7.83
2019-01-25T03:01:16.128Z,8.60
2019-01-25T03:03:47.308Z,8.90
2019-01-25T03:06:18.184Z,8.80
2019-01-25T03:08:49.218Z,8.23
2019-01-25T03:11:20.075Z,7.63
2019-01-25T03:13:51.500Z,8.23
2019-01-25T03:16:22.819Z,8.83
2019-01-25T03:18:53.526Z,7.93
2019-01-25T03:21:24.332Z,7.80
2019-01-25T03:23:55.362Z,7.80
2019-01-25T03:26:26.922Z,8.80
2019-01-25T03:28:58.468Z,7.43
2019-01-25T03:31:29.699Z,7.70
2019-01-25T03:34:00.657Z,7.07
2019-01-25T03:36:31.603Z,7.33
2019-01-25T03:39:02.982Z,6.60
2019-01-25T03:41:35.626Z,7.70
2019-01-25T03:44:07.416Z,7.80
2019-01-25T03:46:39.611Z,8.70
2019-01-25T03:49:12.338Z,8.50
2019-01-25T03:51:43.965Z,7.60
2019-01-25T03:54:15.337Z,6.87
2019-01-25T03:56:47.946Z,6.87
2019-01-25T03:59:18.859Z,7.70
2019-01-25T04:01:49.691Z,7.63
2019-01-25T04:04:21.765Z,7.10
2019-01-25T04:06:52.931Z,7.00
2019-01-25T04:09:23.785Z,7.37
2019-01-25T04:11:54.162Z,7.30
2019-01-25T04:14:25.109Z,6.33
2019-01-25T04:16:55.854Z,6.63
2019-01-25T04:19:27.740Z,6.40
2019-01-25T04:21:58.028Z,8.67
2019-01-25T04:24:29.061Z,8.40
2019-01-25T04:26:59.392Z,6.57
2019-01-25T04:29:30.202Z,6.40
2019-01-25T04:32:00.465Z,7.17
2019-01-25T04:34:31.186Z,6.97
2019-01-25T04:37:01.520Z,6.23
2019-01-25T04:39:32.547Z,7.50
2019-01-25T04:42:02.983Z,6.50
2019-01-25T04:44:33.915Z,8.07
2019-01-25T04:47:04.319Z,7.00
2019-01-25T04:49:37.601Z,7.40
2019-01-25T04:52:14.994Z,6.47
2019-01-25T04:54:45.892Z,8.63
2019-01-25T04:57:16.188Z,6.00
2019-01-25T04:59:46.931Z,12.70
2019-01-25T05:02:17.881Z,5.80
2019-01-25T05:04:48.655Z,6.73
2019-01-25T05:07:19.306Z,5.47
2019-01-25T05:09:50.116Z,6.27
2019-01-25T05:12:20.682Z,6.47
2019-01-25T05:14:51.334Z,6.73
2019-01-25T05:17:21.702Z,6.00
2019-01-25T05:19:52.995Z,6.33
2019-01-25T05:22:23.395Z,6.10
2019-01-25T05:24:54.234Z,7.77
2019-01-25T05:27:24.711Z,6.13
2019-01-25T05:29:56.325Z,6.03
2019-01-25T05:32:26.678Z,6.67
2019-01-25T05:34:57.676Z,6.27
2019-01-25T05:37:28.118Z,7.07
2019-01-25T05:39:59.025Z,6.03
2019-01-25T05:42:29.483Z,6.73
2019-01-25T05:45:01.672Z,6.67
2019-01-25T05:47:32.099Z,6.20
2019-01-25T05:50:03.063Z,7.20
2019-01-25T05:52:33.498Z,8.00
2019-01-25T05:55:04.432Z,6.77
2019-01-25T05:57:36.627Z,6.67
2019-01-25T06:00:11.313Z,6.27
2019-01-25T06:02:42.147Z,7.90
2019-01-25T06:05:13.823Z,6.57
2019-01-25T06:08:00.334Z,6.80
2019-01-25T06:10:34.311Z,7.97
2019-01-25T06:13:05.702Z,7.90
2019-01-25T06:15:36.589Z,6.67
2019-01-25T06:18:07.502Z,7.30
2019-01-25T06:20:38.578Z,6.07
2019-01-25T06:23:09.406Z,7.20
2019-01-25T06:25:40.560Z,8.40
2019-01-25T06:28:12.003Z,6.37
2019-01-25T06:30:42.837Z,7.10
2019-01-25T06:33:13.806Z,6.17
2019-01-25T06:35:44.177Z,6.63
2019-01-25T06:38:15.373Z,6.10
2019-01-25T06:40:46.072Z,6.00
2019-01-25T06:43:16.713Z,5.53
2019-01-25T06:45:47.107Z,6.03
2019-01-25T06:48:18.998Z,6.03
2019-01-25T06:50:49.397Z,7.57
2019-01-25T06:53:20.053Z,6.47
2019-01-25T06:55:50.467Z,8.10
2019-01-25T06:58:30.138Z,7.63
2019-01-25T07:01:34.779Z,6.40
2019-01-25T07:04:06.441Z,6.60
2019-01-25T07:06:37.554Z,7.57
2019-01-25T07:09:12.281Z,7.03
2019-01-25T07:11:51.307Z,6.53
2019-01-25T07:14:17.142Z,6.80
2019-01-25T07:16:48.570Z,5.83
2019-01-25T07:19:19.328Z,6.07
2019-01-25T07:21:50.065Z,6.37
2019-01-25T07:24:21.688Z,5.53
2019-01-25T07:26:52.642Z,7.40
2019-01-25T07:29:24.310Z,6.70
2019-01-25T07:31:55.429Z,6.23
2019-01-25T07:34:26.590Z,7.33
2019-01-25T07:36:57.661Z,8.20
2019-01-25T07:39:30.751Z,7.43
2019-01-25T07:42:02.451Z,6.53
2019-01-25T07:44:33.781Z,6.63
2019-01-25T07:47:05.405Z,6.87
2019-01-25T07:49:36.141Z,7.33
2019-01-25T07:52:07.722Z,6.93
2019-01-25T07:54:38.809Z,6.73
2019-01-25T07:57:09.522Z,7.50
2019-01-25T07:59:40.507Z,7.20
2019-01-25T08:02:11.664Z,5.60
2019-01-25T08:04:42.807Z,6.20
2019-01-25T08:07:13.125Z,7.33
2019-01-25T08:09:44.143Z,7.33
2019-01-25T08:12:14.681Z,7.53
2019-01-25T08:14:45.566Z,8.20
2019-01-25T08:17:15.929Z,9.27
2019-01-25T08:19:46.465Z,9.00
2019-01-25T08:22:17.080Z,7.33
2019-01-25T08:24:47.725Z,6.57
2019-01-25T08:27:18.440Z,6.50
2019-01-25T08:29:49.564Z,7.07
2019-01-25T08:32:20.238Z,7.93
2019-01-25T08:34:50.985Z,10.17
2019-01-25T08:37:21.636Z,9.40
2019-01-25T08:39:52.383Z,8.33
2019-01-25T08:42:23.063Z,6.43
2019-01-25T08:44:53.674Z,6.33
2019-01-25T08:47:24.519Z,7.53
2019-01-25T08:49:58.031Z,6.30
2019-01-25T08:52:27.429Z,6.33
2019-01-25T08:54:58.389Z,6.27
2019-01-25T08:57:29.097Z,8.20
2019-01-25T09:00:00.244Z,8.23
2019-01-25T09:02:31.634Z,7.80
2019-01-25T09:05:03.083Z,7.27
2019-01-25T09:07:34.415Z,7.07
2019-01-25T09:10:07.901Z,8.43
2019-01-25T09:12:38.623Z,8.27
2019-01-25T09:15:15.680Z,7.37
2019-01-25T09:17:46.481Z,6.77
2019-01-25T09:20:20.361Z,7.83
2019-01-25T09:22:51.529Z,8.70
2019-01-25T09:25:22.988Z,8.37
2019-01-25T09:27:54.452Z,7.53
2019-01-25T09:30:25.583Z,6.83
2019-01-25T09:32:57.023Z,6.90
2019-01-25T09:35:28.478Z,6.43
2019-01-25T09:37:59.932Z,8.50
2019-01-25T09:40:31.378Z,8.13
2019-01-25T09:43:02.800Z,7.40
2019-01-25T09:45:33.973Z,6.07
2019-01-25T09:48:05.073Z,7.63
2019-01-25T09:50:35.954Z,6.07
2019-01-25T09:53:07.127Z,7.00
2019-01-25T09:55:38.551Z,6.73
2019-01-25T09:58:12.195Z,8.13
2019-01-25T10:00:50.577Z,6.30
2019-01-25T10:03:21.785Z,8.17
2019-01-25T10:05:52.954Z,8.30
2019-01-25T10:08:24.100Z,7.30
2019-01-25T10:10:55.276Z,9.03
2019-01-25T10:13:26.693Z,7.23
2019-01-25T10:15:57.835Z,9.00
2019-01-25T10:18:29.162Z,16.40
2019-01-25T10:21:00.138Z,18.77
2019-01-25T10:23:30.845Z,11.83
2019-01-25T10:26:01.543Z,10.43
2019-01-25T10:28:31.949Z,11.47
2019-01-25T10:31:02.669Z,9.83
2019-01-25T10:33:33.099Z,9.30
2019-01-25T10:36:03.740Z,13.77
2019-01-25T10:38:35.368Z,11.00
2019-01-25T10:41:06.315Z,7.73
2019-01-25T10:43:36.728Z,12.63
2019-01-25T10:46:07.626Z,8.07
2019-01-25T10:48:38.394Z,9.13
2019-01-25T10:51:09.045Z,9.83
2019-01-25T10:53:39.367Z,7.40
2019-01-25T10:56:10.146Z,8.77
2019-01-25T10:58:40.675Z,7.17
2019-01-25T11:01:11.289Z,8.93
2019-01-25T11:03:42.281Z,8.50
2019-01-25T11:06:13.501Z,7.90
2019-01-25T11:08:44.388Z,7.97
2019-01-25T11:11:15.521Z,7.40
2019-01-25T11:13:46.682Z,7.87
2019-01-25T11:16:17.806Z,8.23
2019-01-25T11:18:49.254Z,7.20
2019-01-25T11:21:20.401Z,10.03
2019-01-25T11:23:51.233Z,7.17
2019-01-25T11:26:21.994Z,8.43
2019-01-25T11:28:52.913Z,10.03
2019-01-25T11:31:23.354Z,7.87
2019-01-25T11:33:54.217Z,6.63
2019-01-25T11:36:24.807Z,8.00
2019-01-25T11:38:55.417Z,6.90
2019-01-25T11:41:25.859Z,8.77
2019-01-25T11:43:56.560Z,10.17
2019-01-25T11:46:28.391Z,8.17
2019-01-25T11:48:59.078Z,6.70
2019-01-25T11:51:29.515Z,7.27
2019-01-25T11:54:00.230Z,7.20
2019-01-25T11:56:30.729Z,7.40
2019-01-25T11:59:01.890Z,7.37
2019-01-25T12:01:32.552Z,7.80
2019-01-25T12:04:03.335Z,8.07
2019-01-25T12:06:34.612Z,7.40
2019-01-25T12:09:09.255Z,8.10
2019-01-25T12:11:40.506Z,7.83
2019-01-25T12:14:13.086Z,7.67
2019-01-25T12:16:45.356Z,6.67
2019-01-25T12:19:16.625Z,7.30
2019-01-25T12:21:49.217Z,7.80
2019-01-25T12:24:20.739Z,9.73
2019-01-25T12:26:52.379Z,9.63
2019-01-25T12:29:23.343Z,7.53
2019-01-25T12:31:55.086Z,7.70
2019-01-25T12:34:26.244Z,7.40
2019-01-25T12:36:57.369Z,10.43
2019-01-25T12:39:28.821Z,8.40
2019-01-25T12:41:59.586Z,8.23
2019-01-25T12:44:30.369Z,7.40
2019-01-25T12:47:01.827Z,9.03
2019-01-25T12:49:32.252Z,7.57
2019-01-25T12:52:08.457Z,8.30
2019-01-25T12:54:38.975Z,8.03
2019-01-25T12:57:09.607Z,10.23
2019-01-25T12:59:41.074Z,10.57
2019-01-25T13:02:11.580Z,10.40
2019-01-25T13:04:42.416Z,9.10
2019-01-25T13:07:13.555Z,9.10
2019-01-25T13:09:45.008Z,9.53
2019-01-25T13:12:16.537Z,9.63
2019-01-25T13:14:47.629Z,11.83
2019-01-25T13:17:18.437Z,9.40
2019-01-25T13:19:49.579Z,8.93
2019-01-25T13:22:20.719Z,8.60
2019-01-25T13:24:51.823Z,12.03
2019-01-25T13:27:22.702Z,9.80
2019-01-25T13:29:53.883Z,9.43
2019-01-25T13:32:24.985Z,9.30
2019-01-25T13:34:55.329Z,7.93
2019-01-25T13:37:26.095Z,10.83
2019-01-25T13:39:56.465Z,12.57
2019-01-25T13:42:27.425Z,10.80
2019-01-25T13:44:57.831Z,11.33
2019-01-25T13:47:30.065Z,15.00
2019-01-25T13:50:00.654Z,11.53
2019-01-25T13:52:32.606Z,10.47
2019-01-25T13:55:03.018Z,11.73
2019-01-25T13:57:33.761Z,13.93
2019-01-25T14:00:05.917Z,14.60
2019-01-25T14:02:36.878Z,13.40
2019-01-25T14:05:08.020Z,10.70
2019-01-25T14:07:38.858Z,13.30
2019-01-25T14:10:12.698Z,13.03
2019-01-25T14:12:44.826Z,10.07
2019-01-25T14:15:15.981Z,8.40
2019-01-25T14:17:47.141Z,11.77
2019-01-25T14:20:23.436Z,8.57
2019-01-25T14:22:53.329Z,11.67
2019-01-25T14:25:24.941Z,9.93
2019-01-25T14:27:55.863Z,13.27
2019-01-25T14:30:41.572Z,9.97
2019-01-25T14:33:12.685Z,10.20
2019-01-25T14:35:43.886Z,9.17
2019-01-25T14:38:16.822Z,9.65
2019-01-25T14:40:47.689Z,9.97
2019-01-25T14:43:18.829Z,9.93
2019-01-25T14:45:49.975Z,12.25
2019-01-25T14:48:21.161Z,8.73
2019-01-25T14:50:52.871Z,9.97
2019-01-25T14:53:24.049Z,11.37
2019-01-25T14:55:55.169Z,10.57
2019-01-25T14:58:26.302Z,12.37
2019-01-25T15:00:57.770Z,10.23
2019-01-25T15:03:29.204Z,12.13
2019-01-25T15:06:00.373Z,10.45
2019-01-25T15:08:31.215Z,8.97
2019-01-25T15:11:02.639Z,13.97
2019-01-25T15:13:33.774Z,12.43
2019-01-25T15:16:04.962Z,9.83
2019-01-25T15:18:35.707Z,14.00
2019-01-25T15:21:06.592Z,9.67
2019-01-25T15:23:38.353Z,10.93
2019-01-25T15:26:09.810Z,10.00
2019-01-25T15:28:41.054Z,11.87
2019-01-25T15:31:12.096Z,9.60
2019-01-25T15:33:42.968Z,9.47
2019-01-25T15:36:14.699Z,10.27
2019-01-25T15:38:45.868Z,11.87
2019-01-25T15:41:16.610Z,11.43
2019-01-25T15:43:47.503Z,10.40
2019-01-25T15:46:18.983Z,11.23
2019-01-25T15:48:51.252Z,10.53
2019-01-25T15:51:22.474Z,11.93
2019-01-25T15:53:53.918Z,9.93
2019-01-25T15:56:24.270Z,10.47
2019-01-25T15:58:54.915Z,12.33
2019-01-25T16:01:25.426Z,10.27
2019-01-25T16:03:56.351Z,12.77
2019-01-25T16:06:28.405Z,10.97
2019-01-25T16:08:59.862Z,13.47
2019-01-25T16:11:30.701Z,13.63
2019-01-25T16:14:01.987Z,14.50
2019-01-25T16:16:32.912Z,11.87
2019-01-25T16:19:04.747Z,17.23
2019-01-25T16:21:35.593Z,12.07
2019-01-25T16:24:06.784Z,12.70
2019-01-25T16:26:37.859Z,11.93
2019-01-25T16:29:09.625Z,12.37
2019-01-25T16:31:40.458Z,12.67
2019-01-25T16:34:11.950Z,14.57
2019-01-25T16:36:43.363Z,12.70
2019-01-25T16:39:15.098Z,12.67
2019-01-25T16:41:46.332Z,13.73
2019-01-25T16:44:17.531Z,14.37
2019-01-25T16:46:48.568Z,14.03
2019-01-25T16:49:19.419Z,14.90
2019-01-25T16:51:50.662Z,16.40
2019-01-25T16:54:22.061Z,13.32
2019-01-25T16:56:53.439Z,13.07
2019-01-25T16:59:24.582Z,13.93
2019-01-25T17:01:55.416Z,11.77
2019-01-25T17:04:26.537Z,13.17
2019-01-25T17:06:57.703Z,12.87
2019-01-25T17:09:29.163Z,11.70
2019-01-25T17:12:01.081Z,14.10
2019-01-25T17:14:33.489Z,14.93
2019-01-25T17:17:04.131Z,15.33
2019-01-25T17:19:35.199Z,14.10
2019-01-25T17:22:06.850Z,14.60
2019-01-25T17:24:37.255Z,16.17
2019-01-25T17:27:09.613Z,13.10
2019-01-25T17:29:40.070Z,16.07
2019-01-25T17:32:11.926Z,14.63
2019-01-25T17:34:42.307Z,16.23
2019-01-25T17:37:12.996Z,15.57
2019-01-25T17:39:43.385Z,15.87
2019-01-25T17:42:14.335Z,15.50
2019-01-25T17:44:44.747Z,17.60
2019-01-25T17:47:15.747Z,16.03
2019-01-25T17:49:46.423Z,16.90
2019-01-25T17:52:18.010Z,18.10
2019-01-25T17:54:50.032Z,17.53
2019-01-25T17:57:20.889Z,15.97
2019-01-25T17:59:51.400Z,16.03
2019-01-25T18:02:22.565Z,16.63
2019-01-25T18:04:52.992Z,16.60
2019-01-25T18:07:24.223Z,17.73
2019-01-25T18:09:58.387Z,18.63
2019-01-25T18:12:30.208Z,18.33
2019-01-25T18:15:01.362Z,18.57
2019-01-25T18:17:32.487Z,18.60
2019-01-25T18:20:03.881Z,16.67
2019-01-25T18:22:35.081Z,17.40
2019-01-25T18:25:06.897Z,18.70
2019-01-25T18:27:38.089Z,17.43
2019-01-25T18:30:21.413Z,18.50
2019-01-25T18:32:51.854Z,19.67
2019-01-25T18:35:22.789Z,17.67
2019-01-25T18:37:54.773Z,18.70
2019-01-25T18:40:26.297Z,17.03
2019-01-25T18:42:57.609Z,17.73
2019-01-25T18:45:29.518Z,18.67
2019-01-25T18:47:59.858Z,18.47
2019-01-25T18:50:31.179Z,16.77
2019-01-25T18:53:01.602Z,15.50
2019-01-25T18:55:32.901Z,17.57
2019-01-25T18:58:03.332Z,19.93
2019-01-25T19:00:34.252Z,17.10
2019-01-25T19:03:05.983Z,19.67
2019-01-25T19:05:36.818Z,19.43
2019-01-25T19:08:07.966Z,18.87
2019-01-25T19:10:40.115Z,19.73
2019-01-25T19:13:11.473Z,20.37
2019-01-25T19:15:42.931Z,17.70
2019-01-25T19:18:14.370Z,18.17
2019-01-25T19:20:45.514Z,19.13
2019-01-25T19:23:16.641Z,20.87
2019-01-25T19:25:47.820Z,19.73
2019-01-25T19:28:19.258Z,19.50
2019-01-25T19:30:50.185Z,19.00
2019-01-25T19:33:20.975Z,19.17
2019-01-25T19:35:52.649Z,17.90
2019-01-25T19:38:23.717Z,18.23
2019-01-25T19:40:54.245Z,20.07
2019-01-25T19:43:25.508Z,18.73
2019-01-25T19:45:56.143Z,19.87
2019-01-25T19:48:26.870Z,20.27
2019-01-25T19:50:57.220Z,25.37
2019-01-25T19:53:28.292Z,24.13
2019-01-25T19:55:59.650Z,24.57
2019-01-25T19:58:30.839Z,22.97
2019-01-25T20:01:01.266Z,22.90
2019-01-25T20:03:37.918Z,22.97
2019-01-25T20:06:08.773Z,24.90
2019-01-25T20:08:39.738Z,26.03
2019-01-25T20:11:10.676Z,24.20
2019-01-25T20:13:42.142Z,23.97
2019-01-25T20:16:13.708Z,28.73
2019-01-25T20:18:45.089Z,23.37
2019-01-25T20:21:16.291Z,23.03
2019-01-25T20:23:47.421Z,23.47
2019-01-25T20:26:18.542Z,25.60
2019-01-25T20:28:49.723Z,24.20
2019-01-25T20:31:20.540Z,25.50
2019-01-25T20:33:51.701Z,21.73
2019-01-25T20:36:22.586Z,21.83
2019-01-25T20:38:53.743Z,26.27
2019-01-25T20:41:24.119Z,24.40
2019-01-25T20:43:55.304Z,23.53
2019-01-25T20:46:28.270Z,25.47
2019-01-25T20:48:59.169Z,23.37
2019-01-25T20:51:29.525Z,21.90
2019-01-25T20:54:00.341Z,25.33
2019-01-25T20:56:30.822Z,28.37
2019-01-25T20:59:01.513Z,25.30
2019-01-25T21:01:31.822Z,23.10
2019-01-25T21:04:02.862Z,24.50
2019-01-25T21:06:34.215Z,25.47
2019-01-25T21:09:07.974Z,24.83
2019-01-25T21:11:39.328Z,25.30
2019-01-25T21:14:10.499Z,23.83
2019-01-25T21:16:41.574Z,23.03
2019-01-25T21:19:12.602Z,23.07
2019-01-25T21:21:43.382Z,24.23
2019-01-25T21:24:14.566Z,24.80
2019-01-25T21:26:45.380Z,24.60
2019-01-25T21:29:16.296Z,23.70
2019-01-25T21:31:46.790Z,23.90
2019-01-25T21:34:17.502Z,23.80
2019-01-25T21:36:50.012Z,24.87
2019-01-25T21:39:21.177Z,26.27
2019-01-25T21:41:52.305Z,23.37
2019-01-25T21:44:23.073Z,23.77
2019-01-25T21:46:53.585Z,23.47
2019-01-25T21:49:24.310Z,24.13
2019-01-25T21:51:54.958Z,24.60
2019-01-25T21:54:27.309Z,24.17
2019-01-25T21:56:59.657Z,24.07
2019-01-25T21:59:30.348Z,23.80
2019-01-25T22:02:01.198Z,23.63
2019-01-25T22:04:31.862Z,23.97
2019-01-25T22:07:02.273Z,25.73
2019-01-25T22:09:33.527Z,24.03
2019-01-25T22:12:05.642Z,24.30
2019-01-25T22:14:36.676Z,24.53
2019-01-25T22:17:08.246Z,23.77
2019-01-25T22:19:39.994Z,23.43
2019-01-25T22:22:11.142Z,24.13
2019-01-25T22:24:42.639Z,23.63
2019-01-25T22:27:13.771Z,26.73
2019-01-25T22:29:45.429Z,24.57
2019-01-25T22:32:16.366Z,23.83
2019-01-25T22:34:47.539Z,25.13
2019-01-25T22:37:18.870Z,26.13
2019-01-25T22:39:50.082Z,22.27
2019-01-25T22:42:21.525Z,27.17
2019-01-25T22:44:52.680Z,27.13
2019-01-25T22:47:23.999Z,23.67
2019-01-25T22:49:55.252Z,25.30
2019-01-25T22:52:26.254Z,25.37
2019-01-25T22:54:57.932Z,25.13
2019-01-25T22:57:30.323Z,23.13
2019-01-25T23:00:02.490Z,23.83
2019-01-25T23:02:35.425Z,24.87
2019-01-25T23:05:58.744Z,24.63
2019-01-25T23:08:31.555Z,25.10
2019-01-25T23:11:02.702Z,25.13
2019-01-25T23:13:34.115Z,24.90
2019-01-25T23:16:06.414Z,26.03
2019-01-25T23:18:39.229Z,24.83
2019-01-25T23:21:11.552Z,26.47
2019-01-25T23:23:41.900Z,26.90
2019-01-25T23:26:12.604Z,27.20
2019-01-25T23:28:43.148Z,26.43
2019-01-25T23:31:14.067Z,25.10
2019-01-25T23:33:44.377Z,26.30
2019-01-25T23:36:15.270Z,25.47
2019-01-25T23:38:45.659Z,26.30
2019-01-25T23:41:16.544Z,24.70
2019-01-25T23:43:47.006Z,25.33
2019-01-25T23:46:17.965Z,27.13
2019-01-25T23:48:48.294Z,27.03
2019-01-25T23:51:23.046Z,26.40
2019-01-25T23:53:52.434Z,27.53
2019-01-25T23:56:23.246Z,27.20
2019-01-25T23:58:53.593Z,27.57
